INDIANA  -  Flood Watch Flood Watch     River Flood Watch River Flood Watch  
 JEFFERSON  -  Flood Watch Flood Watch  

Active alerts

Jefferson
  Details for Jefferson Flood Watch
Indiana
  Details for Indiana Flood Watch  +1 additional alert

Amazon Weather

Hours of Daylight

11 hrs 5 min 50 sec
of Daylight Today
graph 46.2% Day 53.8% Night Which is
2 min 39 sec Longer
Than Yesterday

South West Webcam Still Photo more information South West Webcam Still Photo


You find our weather info also at:

UK Metoffice

Weather Underground

Mid-Atlantic Weather Network

WeatherlinkIP

Citizen Weather Observer Program (CWOP)

HAMweather, WeatherForYou, PWS Weather



Nearby METAR Reports

   
KDUJ - Du Bois, Pennsylvania, USA
Distance from station: NNE 16 mi
Updated: Feb 24 2018 1:53 am
Mist, Overcast  
Mist, Overcast  
   Wind: NW 9.2 mph
Wind: NW 9.2 mph
Temperature: 48.2°F
Wind Chill: 44.6°F
Dew Point: 46.4°F
Humidity: 94%
Barometer: 30.15 inHg
Clouds: Overcast
Visibility: 5 mi
Cloud details: Overcast 400 ft
KDUJ 240653Z AUTO 31008KT 5SM BR OVC004 09/08 A3015 RMK AO2 SLP217 T00940078
KIDI - Indiana/Stewart, Pennsylvania, USA
Distance from station: SSW 23 mi
Updated: Feb 24 2018 2:35 am
Overcast  
Overcast  
   Wind: NNW 9.2 mph
Wind: NNW 9.2 mph
Temperature: 53.6°F
Dew Point: 53.6°F
Humidity: 100%
Barometer: 30.2 inHg
Clouds: Overcast
Visibility: 10 mi
Cloud details: Mostly Cloudy 700 ft,
Mostly Cloudy 1000 ft,
Overcast 3400 ft
KIDI 240735Z AUTO 33008KT 10SM BKN007 BKN010 OVC034 12/12 A3020 RMK A01
KFIG - Clearfield, Pennsylvania, USA
Distance from station: ENE 31 mi
Updated: Feb 24 2018 1:54 am
Overcast  
Overcast  
   Wind: WNW 8.1 mph
Wind: WNW 8.1 mph
Temperature: 51.8°F
Dew Point: 48.2°F
Humidity: 88%
Barometer: 30.15 inHg
Clouds: Overcast
Visibility: 10 mi
Cloud details: Overcast 1000 ft
KFIG 240654Z AUTO 29007KT 10SM OVC010 11/09 A3015 RMK AO2 CIG 008V014 SLP217 T01060094
KJST - Johnstown, Pennsylvania, USA
Distance from station: S 44 mi
Updated: Feb 24 2018 2:32 am
Overcast  
Overcast  
   Wind: West 11.5 mph
Wind: West 11.5 mph
Temperature: 55.4°F
Dew Point: 51.8°F
Humidity: 88%
Barometer: 30.14 inHg
Clouds: Overcast
Visibility: 10 mi
Cloud details: Partly Cloudy 1300 ft,
Mostly Cloudy 2000 ft,
Overcast 2700 ft
KJST 240732Z AUTO 27010KT 10SM SCT013 BKN020 OVC027 13/11 A3014 RMK AO2 T01330111
KPIT - Pittsburgh, Pennsylvania, USA
Distance from station: WSW 74 mi
Updated: Feb 24 2018 2:18 am
Mostly Cloudy  
Mostly Cloudy  
   Wind: North 5.8 mph
Wind: North 5.8 mph
Temperature: 51.8°F
Dew Point: 50°F
Humidity: 94%
Barometer: 30.16 inHg
Clouds: Mostly Cloudy
Visibility: 10 mi
Cloud details: Partly Cloudy 1900 ft,
Mostly Cloudy 3100 ft,
Mostly Cloudy 15000 ft
KPIT 240718Z 35005KT 10SM SCT019 BKN031 BKN150 11/10 A3016 RMK AO2 T01110100
KLBE - Latrobe/Westmorl, Pennsylvania, USA
Distance from station: SSW 52 mi
Updated: Feb 24 2018 2:35 am
Few Clouds  
Few Clouds  
   Wind: SW 6.9 mph
Wind: SW 6.9 mph
Temperature: 55.4°F
Dew Point: 55.4°F
Humidity: 100%
Barometer: 30.16 inHg
Clouds: Few Clouds
Visibility: 10 mi
Cloud details: Few Clouds 2400 ft,
Few Clouds 3100 ft
KLBE 240735Z AUTO 22006KT 10SM FEW024 FEW031 13/13 A3016 RMK AO2
KBTP - Butler Co., Pennsylvania, USA
Distance from station: WSW 52 mi
Updated: Feb 24 2018 1:56 am
Overcast  
Overcast  
   Wind: NNW 5.8 mph
Wind: NNW 5.8 mph
Temperature: 50°F
Wind Chill: 48.2°F
Dew Point: 48.2°F
Humidity: 94%
Barometer: 30.17 inHg
Clouds: Overcast
Visibility: 10 mi
Cloud details: Mostly Cloudy 800 ft,
Overcast 2500 ft
KBTP 240656Z AUTO 34005KT 10SM BKN008 OVC025 10/09 A3017 RMK AO2 SLP225 T01000089
KUCP - New Castle Muni, Pennsylvania, USA
Distance from station: W 75 mi
Updated: Feb 24 2018 1:56 am
Overcast  
Overcast  
   Wind: NNW 6.9 mph
Wind: NNW 6.9 mph
Temperature: 48.2°F
Wind Chill: 44.6°F
Dew Point: 48.2°F
Humidity: 100%
Barometer: 30.2 inHg
Clouds: Overcast
Visibility: 10 mi
Cloud details: Overcast 1000 ft
KUCP 240656Z AUTO 33006KT 10SM OVC010 09/09 A3020 RMK AO2 SLP243 T00940089
KFKL - Franklin, Pennsylvania, USA
Distance from station: WNW 54 mi
Updated: Feb 24 2018 2:42 am
Overcast  
Overcast  
   Wind: varies 6.9 mph
Wind: varies 6.9 mph
Temperature: 44.6°F
Wind Chill: 41°F
Dew Point: 42.8°F
Humidity: 93%
Barometer: 30.19 inHg
Clouds: Overcast
Visibility: 9 mi
Cloud details: Mostly Cloudy 500 ft,
Overcast 1100 ft
KFKL 240742Z AUTO VRB06KT 9SM BKN005 OVC011 07/06 A3019 RMK AO2 RAB31E42 CIG 003V007 P0000
KAOO - Altoona, Pennsylvania, USA
Distance from station: SE 57 mi
Updated: Feb 24 2018 2:09 am
Mist, Mostly Cloudy  
Mist, Mostly Cloudy  
   Wind: Calm
Wind: Calm
Temperature: 41°F
Dew Point: 39.2°F
Humidity: 93%
Barometer: 30.15 inHg
Clouds: Mostly Cloudy
Visibility: 4 mi
Cloud details: Partly Cloudy 2500 ft,
Mostly Cloudy 3600 ft
KAOO 240709Z AUTO 00000KT 4SM BR SCT025 BKN036 05/04 A3015 RMK AO2 T00500044
KUNV - State College, Pennsylvania, USA
Distance from station: E 61 mi
Updated: Feb 24 2018 2:35 am
Mist, Overcast  
Mist, Overcast  
   Wind: ENE 4.6 mph
Wind: ENE 4.6 mph
Temperature: 41°F
Wind Chill: 37.4°F
Dew Point: 41°F
Humidity: 100%
Barometer: 30.15 inHg
Clouds: Overcast
Visibility: 1 mi
Cloud details: Overcast 200 ft
KUNV 240735Z AUTO 06004KT 1SM BR OVC002 05/05 A3015 RMK AO2 T00460046
KBFD - Bradford, Pennsylvania, USA
Distance from station: NNE 62 mi
Updated: Feb 24 2018 2:28 am
Overcast  
Overcast  
   Wind: WNW 10.4 mph
Wind: WNW 10.4 mph
Temperature: 44.6°F
Wind Chill: 39.2°F
Dew Point: 42.8°F
Humidity: 93%
Barometer: 30.15 inHg
Clouds: Overcast
Visibility: 10 mi
Cloud details: Few Clouds 700 ft,
Overcast 1300 ft
KBFD 240728Z AUTO 29009KT 10SM FEW007 OVC013 07/06 A3015 RMK AO2 T00670056

Script developed by  Saratoga-weather.org Adapted for the template by  Weerstation Leuven

Equipment we use:

Weather-station
Davis VP2

Weather-program
Cumulus

Weather-server
Dell Inspiron 3521

Provider
Host On A Rope

Davis VP2

Cumulus

Dell Inspiron 3521

Host On A Rope